Airfield :
LOGIN :

Register | Disclaimer

   EN    FR    IT 

 










Legend :    VFR   Marginal VFR   IFR   Intensive IFR   Very Intensive IFR
Visi :
Ceiling :
>= 8 km
>= 3000ft
5 to 8 km
1000 to 3000 ft
1500m to 5 km
500 to 1000 ft
800 to 1500m
200 to 500 ft
< 800m
< 200 ft
Symbols :   Thunderstorms  Fog  Heavy snow  Heavy precipitations  Wind > 20 kt
SIGMETs :     Misc.  Thunderstorms  Icing  Turbulence  Mountain Waves  Volcanic Ashes







- Airport Elevation : 194 ft


EBCV - Chièvres

CURRENT METAR :
  • 191825Z AUTO 36005KT 6000 NCD 11/09 Q1026 WHT

EXPIRED METARs :
  • 191816Z AUTO 36004KT 5000 FEW029/// 11/09 Q1026 WHT
  • 191804Z AUTO 36004KT 4800 FEW029/// 11/09 Q1026 GRN
  • 191725Z AUTO 36005KT 5000 BKN029/// 12/09 Q1025 WHT
  • 191655Z AUTO 35006KT 7000 FEW028/// 13/10 Q1025 WHT
  • 191644Z AUTO 36006KT 6000 FEW031/// 13/10 Q1025 WHT
  • 191625Z AUTO 01005KT 9000 BKN026/// 14/10 Q1025 BLU
  • 191555Z AUTO 04004KT 9000 SCT026/// 15/10 Q1024 BLU
  • 191525Z AUTO 03007KT 8000 SCT230/// 15/10 Q1024 BLU

TAF TAF EBCV
Valid from the 19 at 19:00 until the 20 at 07:00 UTC


191541Z 1919/2007 01005KT 8000 FEW030 SCT220
BECMG 2001/2003 VRB03KT 5000 BR
TEMPO 2002/2007 3000 BR MIFG
PROB30
TEMPO 2003/2007 0500 FG BY EBWM
No reported NOTAMs for that airfield.



MET'MAP, your aeronautical weather chart ! - Copyright ORBIFLY December 2007 - Disclaimer

ORBIFLY MET'MAP TEAM :

Programming & Development : Alexandra Zaïnal
Concept & Development : Baudouin d'Aumeries
Co-Development & Prog : Marc-Olivier Méhu
Technical & hardware support : Manuel Goepfert

Contact : metmap@orbifly.com




SOURCES & CREDITS :

   NOAA